Time;durP1;ratioP1;P1;durP2;ratioP2;P2;SDS_P1;SDS_P2;PMS_P1;PMS_P2;Temp;Humidity;BMP_temperature;BMP_pressure;BME280_temperature;BME280_humidity;BME280_pressure;Samples;Min_cycle;Max_cycle;Signal;HPM_P1;HPM_P2
2024/01/21 00:01:29;;;;;;;14.23;9.93;;;0.20;99.90;;;;;;5068800;28;20112;-29
2024/01/21 00:03:55;;;;;;;15.32;10.57;;;0.20;99.90;;;;;;5072984;28;20391;-29
2024/01/21 00:06:21;;;;;;;15.60;10.70;;;0.30;99.90;;;;;;5072928;28;20044;-29
2024/01/21 00:08:47;;;;;;;15.40;10.32;;;0.20;99.90;;;;;;5085590;28;20555;-29
2024/01/21 00:11:13;;;;;;;15.38;9.73;;;0.20;99.90;;;;;;5076052;28;20127;-29
2024/01/21 00:13:39;;;;;;;16.17;11.02;;;0.20;99.90;;;;;;5072715;28;20111;-29
2024/01/21 00:16:04;;;;;;;13.75;9.60;;;0.30;99.90;;;;;;5072864;28;20033;-29
2024/01/21 00:18:30;;;;;;;17.20;9.90;;;0.30;99.90;;;;;;5080410;28;20032;-29
2024/01/21 00:20:57;;;;;;;14.30;9.88;;;0.30;99.90;;;;;;5073277;28;20041;-29
2024/01/21 00:23:23;;;;;;;14.15;10.07;;;0.30;99.90;;;;;;5068825;28;20157;-29
2024/01/21 00:25:49;;;;;;;15.48;10.05;;;0.20;99.90;;;;;;5072668;28;20528;-29
2024/01/21 00:28:14;;;;;;;13.68;10.07;;;0.30;99.90;;;;;;5070498;28;20040;-29
2024/01/21 00:30:40;;;;;;;15.13;9.48;;;0.20;99.90;;;;;;5073041;28;20044;-28
2024/01/21 00:33:06;;;;;;;19.98;10.32;;;0.20;99.90;;;;;;5072597;28;20043;-29
2024/01/21 00:35:31;;;;;;;12.38;9.23;;;0.10;99.90;;;;;;5065933;28;20028;-27
2024/01/21 00:37:57;;;;;;;16.75;10.32;;;0.10;99.90;;;;;;5079180;28;20078;-27
2024/01/21 00:40:23;;;;;;;14.15;9.80;;;0.10;99.90;;;;;;5075951;28;20055;-27
2024/01/21 00:42:49;;;;;;;14.35;9.52;;;0.10;99.90;;;;;;5071250;28;20056;-26
2024/01/21 00:45:14;;;;;;;13.65;8.52;;;0.10;99.90;;;;;;5067575;28;20028;-27
2024/01/21 00:47:40;;;;;;;15.85;10.00;;;0.10;99.90;;;;;;5083031;28;20036;-26
2024/01/21 00:50:06;;;;;;;12.07;8.50;;;0.10;99.90;;;;;;5068628;28;20124;-26
2024/01/21 00:52:32;;;;;;;14.25;9.43;;;0.10;99.90;;;;;;5072655;28;20044;-26
2024/01/21 00:54:58;;;;;;;13.88;8.55;;;0.10;99.90;;;;;;5054461;28;20422;-27
2024/01/21 00:57:23;;;;;;;11.13;7.82;;;0.10;99.90;;;;;;5072537;28;20106;-26
2024/01/21 00:59:49;;;;;;;15.32;8.70;;;0.10;99.90;;;;;;5071842;28;20037;-26
2024/01/21 01:02:15;;;;;;;13.23;7.60;;;0.10;99.90;;;;;;5053877;28;20051;-27
2024/01/21 01:04:40;;;;;;;11.68;7.47;;;0.10;99.90;;;;;;5072570;28;20518;-27
2024/01/21 01:07:06;;;;;;;10.85;7.13;;;0.20;99.90;;;;;;5072143;28;20522;-27
2024/01/21 01:09:32;;;;;;;15.10;8.85;;;0.20;99.90;;;;;;5084182;28;20219;-26
2024/01/21 01:11:57;;;;;;;9.40;7.40;;;0.20;99.90;;;;;;5070352;28;20120;-26
2024/01/21 01:14:23;;;;;;;10.32;7.50;;;0.20;99.90;;;;;;5070608;28;20571;-26
2024/01/21 01:16:49;;;;;;;10.02;6.60;;;0.30;99.90;;;;;;5066266;28;20368;-30
2024/01/21 01:19:15;;;;;;;8.90;6.50;;;0.30;99.90;;;;;;5072092;28;20395;-29
2024/01/21 01:21:40;;;;;;;8.18;6.15;;;0.20;99.90;;;;;;5072252;28;20028;-29
2024/01/21 01:24:07;;;;;;;9.32;6.38;;;0.30;99.90;;;;;;5072275;28;20451;-31
2024/01/21 01:26:32;;;;;;;12.07;6.32;;;0.30;99.90;;;;;;5071938;28;20098;-27
2024/01/21 01:28:58;;;;;;;9.07;5.72;;;0.40;99.90;;;;;;5072343;28;20408;-28
2024/01/21 01:31:24;;;;;;;8.02;5.95;;;0.40;99.90;;;;;;5072093;28;20044;-30
2024/01/21 01:33:50;;;;;;;7.28;5.13;;;0.50;99.90;;;;;;5071544;28;20032;-28
2024/01/21 01:36:16;;;;;;;8.73;5.70;;;0.50;99.90;;;;;;5054120;28;20055;-28
2024/01/21 01:38:42;;;;;;;7.13;5.38;;;0.60;99.90;;;;;;5064664;28;20044;-28
2024/01/21 01:41:08;;;;;;;6.47;4.72;;;0.60;99.90;;;;;;5071639;28;20056;-28
2024/01/21 01:43:33;;;;;;;7.68;4.80;;;0.60;99.90;;;;;;5071966;28;20487;-28
2024/01/21 01:46:00;;;;;;;7.35;4.65;;;0.60;99.90;;;;;;5071825;28;20041;-28
2024/01/21 01:48:28;;;;;;;6.10;4.50;;;0.50;99.90;;;;;;5068828;28;20120;-28
2024/01/21 01:50:56;;;;;;;6.05;4.78;;;0.60;99.90;;;;;;5072148;28;20044;-28
2024/01/21 01:53:22;;;;;;;7.78;4.82;;;0.70;99.90;;;;;;5069489;28;20090;-28
2024/01/21 01:55:48;;;;;;;5.93;4.18;;;0.70;99.90;;;;;;5072003;28;20049;-28
2024/01/21 01:58:16;;;;;;;6.70;4.82;;;0.70;99.90;;;;;;5071626;28;20495;-28
2024/01/21 02:00:45;;;;;;;5.65;4.18;;;0.70;99.90;;;;;;5071667;28;20036;-28
2024/01/21 02:03:12;;;;;;;7.07;4.30;;;0.80;99.90;;;;;;5053521;28;20491;-28
2024/01/21 02:05:38;;;;;;;6.18;4.50;;;0.80;99.90;;;;;;5051908;28;20223;-28
2024/01/21 02:08:04;;;;;;;5.55;3.83;;;0.80;99.90;;;;;;5071677;28;20199;-27
2024/01/21 02:10:30;;;;;;;7.20;3.92;;;0.80;99.90;;;;;;5080402;28;20064;-30
2024/01/21 02:12:56;;;;;;;5.22;4.03;;;0.80;99.90;;;;;;5072085;28;20115;-30
2024/01/21 02:15:23;;;;;;;5.05;3.72;;;0.80;99.90;;;;;;5084593;28;20399;-30
2024/01/21 02:17:48;;;;;;;4.60;3.90;;;0.80;99.90;;;;;;5072286;28;20041;-29
2024/01/21 02:20:15;;;;;;;4.15;3.55;;;0.80;99.90;;;;;;5071653;28;20088;-29
2024/01/21 02:22:41;;;;;;;6.47;3.95;;;0.90;99.90;;;;;;5071458;28;20051;-28
2024/01/21 02:25:08;;;;;;;4.68;4.05;;;0.90;99.90;;;;;;5083309;28;20039;-28
2024/01/21 02:27:34;;;;;;;6.05;3.40;;;0.90;99.90;;;;;;5062622;28;20395;-28
2024/01/21 02:30:00;;;;;;;4.45;3.40;;;0.90;99.90;;;;;;5059362;28;20055;-28
2024/01/21 02:32:26;;;;;;;5.38;3.60;;;0.90;99.90;;;;;;5075409;28;20033;-28
2024/01/21 02:34:53;;;;;;;5.32;3.53;;;0.90;99.90;;;;;;5052450;28;20044;-28
2024/01/21 02:37:18;;;;;;;4.85;3.33;;;1.00;99.90;;;;;;5089920;28;20447;-29
2024/01/21 02:39:45;;;;;;;6.25;3.20;;;0.90;99.90;;;;;;5075231;28;20119;-29
2024/01/21 02:42:11;;;;;;;5.38;3.95;;;0.90;99.90;;;;;;5075397;28;20110;-31
2024/01/21 02:44:36;;;;;;;4.07;3.10;;;0.90;99.90;;;;;;5067890;28;20137;-30
2024/01/21 02:47:02;;;;;;;4.72;2.80;;;0.90;99.90;;;;;;5080893;28;20040;-30
2024/01/21 02:49:28;;;;;;;5.20;3.30;;;0.90;99.90;;;;;;5084872;28;20039;-30
2024/01/21 02:51:58;;;;;;;7.57;3.53;;;0.90;99.90;;;;;;5075070;28;20521;-30
2024/01/21 02:54:24;;;;;;;7.57;4.28;;;1.00;99.90;;;;;;5085758;28;20059;-30
2024/01/21 02:56:50;;;;;;;5.20;3.20;;;0.90;99.90;;;;;;5077751;28;20072;-30
2024/01/21 02:59:16;;;;;;;4.93;3.45;;;1.00;99.90;;;;;;5074609;28;20495;-30
2024/01/21 03:01:42;;;;;;;3.40;2.78;;;1.00;99.90;;;;;;5074590;28;20098;-30
2024/01/21 03:04:12;;;;;;;4.72;3.00;;;1.00;99.90;;;;;;5074665;28;20373;-30
2024/01/21 03:06:38;;;;;;;3.53;2.70;;;1.10;99.90;;;;;;5074352;28;20395;-30
2024/01/21 03:09:04;;;;;;;3.70;2.92;;;1.10;99.90;;;;;;5074657;28;20213;-30
2024/01/21 03:11:31;;;;;;;5.28;2.80;;;1.20;99.90;;;;;;5077577;28;20478;-30
2024/01/21 03:13:57;;;;;;;5.00;2.30;;;1.20;99.90;;;;;;5074171;28;20041;-30
2024/01/21 03:16:23;;;;;;;3.65;2.53;;;1.20;99.90;;;;;;5075751;28;20047;-30
2024/01/21 03:18:49;;;;;;;4.25;2.90;;;1.20;99.90;;;;;;5073900;28;20097;-30
2024/01/21 03:21:14;;;;;;;2.70;2.25;;;1.20;99.90;;;;;;5071211;28;20064;-30
2024/01/21 03:23:40;;;;;;;4.28;2.33;;;1.20;99.90;;;;;;5073179;28;20040;-29
2024/01/21 03:26:06;;;;;;;4.00;2.42;;;1.20;99.90;;;;;;5073839;28;20028;-29
2024/01/21 03:28:32;;;;;;;3.35;2.30;;;1.20;99.90;;;;;;5071829;28;20502;-29
2024/01/21 03:30:58;;;;;;;3.50;2.20;;;1.20;99.90;;;;;;5084645;28;20534;-29
2024/01/21 03:33:25;;;;;;;2.13;1.83;;;1.20;99.90;;;;;;5073763;28;20048;-29
2024/01/21 03:35:51;;;;;;;3.33;2.15;;;1.30;99.90;;;;;;5073803;28;20044;-29
2024/01/21 03:38:17;;;;;;;3.70;2.17;;;1.30;99.90;;;;;;5073913;28;20533;-29
2024/01/21 03:40:43;;;;;;;2.42;1.92;;;1.30;99.90;;;;;;5072708;28;20075;-28
2024/01/21 03:43:09;;;;;;;3.92;2.30;;;1.40;99.90;;;;;;5073660;28;20048;-27
2024/01/21 03:45:35;;;;;;;3.90;2.55;;;1.40;99.90;;;;;;5073806;28;20040;-27
2024/01/21 03:48:00;;;;;;;3.80;2.30;;;1.40;99.90;;;;;;5073359;28;20040;-27
2024/01/21 03:50:26;;;;;;;2.28;1.90;;;1.40;99.90;;;;;;5067700;28;20044;-27
2024/01/21 03:52:52;;;;;;;2.70;1.63;;;1.40;99.90;;;;;;5072678;28;20040;-27
2024/01/21 03:55:19;;;;;;;2.70;1.83;;;1.40;99.90;;;;;;5070860;28;20037;-28
2024/01/21 03:57:45;;;;;;;3.13;2.08;;;1.40;99.90;;;;;;5073464;28;20053;-28
2024/01/21 04:00:12;;;;;;;2.15;1.90;;;1.50;99.90;;;;;;5073676;28;20040;-27
2024/01/21 04:02:38;;;;;;;3.70;1.90;;;1.50;98.70;;;;;;5060517;28;20560;-27
2024/01/21 04:05:05;;;;;;;3.58;2.42;;;1.50;99.90;;;;;;5073693;28;20530;-27
2024/01/21 04:07:31;;;;;;;3.40;2.00;;;1.50;99.90;;;;;;5085025;28;20036;-27
2024/01/21 04:09:57;;;;;;;3.22;2.05;;;1.60;99.90;;;;;;5073617;28;20047;-27
2024/01/21 04:12:23;;;;;;;3.38;2.10;;;1.60;99.90;;;;;;5055830;28;20051;-27
2024/01/21 04:14:49;;;;;;;3.00;1.50;;;1.60;99.90;;;;;;5073437;28;20048;-27
2024/01/21 04:17:15;;;;;;;2.55;2.17;;;1.70;93.50;;;;;;5080819;28;20044;-27
2024/01/21 04:19:41;;;;;;;4.57;2.17;;;1.80;97.40;;;;;;5063400;28;20376;-27
2024/01/21 04:22:06;;;;;;;2.28;1.80;;;1.80;99.90;;;;;;5055299;28;20102;-27
2024/01/21 04:24:32;;;;;;;2.92;2.00;;;1.90;97.20;;;;;;5069719;28;20433;-29
2024/01/21 04:26:58;;;;;;;2.67;1.65;;;1.90;98.00;;;;;;5073295;28;20109;-29
2024/01/21 04:29:24;;;;;;;1.73;1.63;;;1.80;99.90;;;;;;5075718;28;20044;-29
2024/01/21 04:31:50;;;;;;;2.08;1.73;;;1.80;99.90;;;;;;5083498;28;20037;-29
2024/01/21 04:34:16;;;;;;;2.03;1.70;;;1.80;94.20;;;;;;5055234;28;20040;-29
2024/01/21 04:36:41;;;;;;;2.50;1.88;;;1.90;93.60;;;;;;5058167;28;20050;-29
2024/01/21 04:39:07;;;;;;;2.20;1.80;;;1.90;96.80;;;;;;5083120;28;20040;-29
2024/01/21 04:41:33;;;;;;;2.53;1.80;;;1.80;98.70;;;;;;5072579;28;20059;-29
2024/01/21 04:43:59;;;;;;;2.78;1.67;;;1.80;98.30;;;;;;5050980;28;20045;-29
2024/01/21 04:46:25;;;;;;;2.65;1.77;;;1.80;95.60;;;;;;5070373;28;20411;-29
2024/01/21 04:48:51;;;;;;;2.80;1.95;;;1.80;98.60;;;;;;5063639;28;20036;-29
2024/01/21 04:51:17;;;;;;;2.13;1.73;;;1.80;94.50;;;;;;5071140;28;20040;-29
2024/01/21 04:53:43;;;;;;;5.03;2.10;;;1.70;97.00;;;;;;5045461;28;20534;-29
2024/01/21 04:56:16;;;;;;;2.60;1.70;;;1.70;96.50;;;;;;5072488;28;20186;-29
2024/01/21 04:58:42;;;;;;;1.83;1.73;;;1.80;83.30;;;;;;5077646;28;20520;-29
2024/01/21 05:01:08;;;;;;;3.20;2.25;;;1.70;94.20;;;;;;5076775;28;20037;-29
2024/01/21 05:03:33;;;;;;;2.40;2.00;;;1.70;99.20;;;;;;5054647;28;20032;-29
2024/01/21 05:05:59;;;;;;;2.85;2.03;;;1.70;96.50;;;;;;5072554;28;20041;-29
2024/01/21 05:08:25;;;;;;;1.73;1.60;;;1.70;98.80;;;;;;5072345;28;20487;-29
2024/01/21 05:10:51;;;;;;;3.55;2.30;;;1.60;98.00;;;;;;5086335;28;20564;-29
2024/01/21 05:13:17;;;;;;;2.58;1.75;;;1.60;98.10;;;;;;5060430;28;20040;-29
2024/01/21 05:15:43;;;;;;;4.22;2.17;;;1.60;95.70;;;;;;5055075;28;20040;-29
2024/01/21 05:18:09;;;;;;;2.33;1.95;;;1.60;97.80;;;;;;5072812;28;20055;-29
2024/01/21 05:20:34;;;;;;;3.03;2.28;;;1.60;99.80;;;;;;5073423;28;20036;-29
2024/01/21 05:23:00;;;;;;;4.40;2.20;;;1.60;99.90;;;;;;5071911;28;20040;-30
2024/01/21 05:25:26;;;;;;;3.35;2.33;;;1.60;94.00;;;;;;5071436;28;20036;-30
2024/01/21 05:27:52;;;;;;;3.08;2.00;;;1.60;99.50;;;;;;5072159;28;20124;-30
2024/01/21 05:30:17;;;;;;;3.63;2.35;;;1.60;99.90;;;;;;5071649;28;20051;-30
2024/01/21 05:32:46;;;;;;;4.25;2.58;;;1.50;99.60;;;;;;5070258;28;20048;-30
2024/01/21 05:35:14;;;;;;;4.38;2.55;;;1.50;99.90;;;;;;5071542;28;20051;-29
2024/01/21 05:37:40;;;;;;;3.13;2.53;;;1.50;99.90;;;;;;5071564;28;20503;-29
2024/01/21 05:40:06;;;;;;;3.33;2.15;;;1.50;99.90;;;;;;5080330;28;20093;-29
2024/01/21 05:42:32;;;;;;;4.28;2.38;;;1.50;99.90;;;;;;5074457;28;20098;-29
2024/01/21 05:44:59;;;;;;;4.55;2.85;;;1.50;99.90;;;;;;5071005;28;20033;-29
2024/01/21 05:47:24;;;;;;;3.60;2.40;;;1.50;99.90;;;;;;5068175;28;20063;-28
2024/01/21 05:49:50;;;;;;;3.42;2.47;;;1.60;99.90;;;;;;5071031;28;20078;-28
2024/01/21 05:52:16;;;;;;;4.95;3.08;;;1.60;99.90;;;;;;5071457;28;20036;-28
2024/01/21 05:54:42;;;;;;;4.78;2.97;;;1.70;98.70;;;;;;5071038;28;20028;-28
2024/01/21 05:57:08;;;;;;;4.50;2.70;;;1.80;99.60;;;;;;5053408;28;20090;-28
2024/01/21 05:59:34;;;;;;;5.07;2.97;;;1.70;99.90;;;;;;5053663;28;20110;-28
2024/01/21 06:02:00;;;;;;;4.15;3.03;;;1.80;96.60;;;;;;5053535;28;20399;-28
2024/01/21 06:04:26;;;;;;;4.90;3.20;;;1.90;95.70;;;;;;5070855;28;20546;-28
2024/01/21 06:06:52;;;;;;;4.90;3.10;;;1.90;94.00;;;;;;5071136;28;20495;-28
2024/01/21 06:09:18;;;;;;;8.32;3.25;;;1.90;95.60;;;;;;5056801;28;20150;-28
2024/01/21 06:11:44;;;;;;;3.88;3.17;;;2.00;92.80;;;;;;5067247;28;20116;-28
2024/01/21 06:14:11;;;;;;;5.93;3.20;;;2.10;86.90;;;;;;5049885;28;20044;-28
2024/01/21 06:16:37;;;;;;;5.97;3.70;;;2.10;82.60;;;;;;5077224;28;20355;-28
2024/01/21 06:19:03;;;;;;;5.65;3.35;;;2.10;88.70;;;;;;5073708;28;20521;-28
2024/01/21 06:21:29;;;;;;;6.40;3.42;;;2.10;88.70;;;;;;5069072;28;20033;-28
2024/01/21 06:23:55;;;;;;;5.22;3.80;;;2.10;90.20;;;;;;5069352;28;20032;-28
2024/01/21 06:26:22;;;;;;;4.72;3.58;;;2.10;92.80;;;;;;5071401;28;20051;-28
2024/01/21 06:28:51;;;;;;;6.25;3.55;;;2.00;95.00;;;;;;5034800;28;20403;-28
2024/01/21 06:31:18;;;;;;;6.03;4.10;;;2.00;93.40;;;;;;5074460;28;20117;-28
2024/01/21 06:33:44;;;;;;;4.70;3.20;;;2.00;96.30;;;;;;5044760;28;20055;-28
2024/01/21 06:36:10;;;;;;;6.55;3.50;;;2.00;94.20;;;;;;5053903;28;20120;-28
2024/01/21 06:38:38;;;;;;;7.05;4.20;;;2.10;99.10;;;;;;5070971;28;20029;-28
2024/01/21 06:41:04;;;;;;;7.13;4.32;;;2.00;94.00;;;;;;5070906;28;20392;-28
2024/01/21 06:43:30;;;;;;;6.97;4.15;;;2.00;99.10;;;;;;5052824;28;20107;-28
2024/01/21 06:45:55;;;;;;;7.70;4.63;;;2.10;99.90;;;;;;5075707;28;20115;-28
2024/01/21 06:48:21;;;;;;;6.05;4.15;;;2.10;99.90;;;;;;5070264;28;20051;-28
2024/01/21 06:50:48;;;;;;;7.03;4.45;;;2.10;96.00;;;;;;5075968;28;20028;-28
2024/01/21 06:53:17;;;;;;;6.05;4.13;;;2.10;97.90;;;;;;5054871;28;20128;-28
2024/01/21 06:55:44;;;;;;;10.43;5.03;;;2.20;97.60;;;;;;5036195;28;20032;-28
2024/01/21 06:58:10;;;;;;;8.13;5.40;;;2.10;99.90;;;;;;5078172;28;20036;-28
2024/01/21 07:00:35;;;;;;;6.05;4.63;;;2.10;99.90;;;;;;5068191;28;20592;-29
2024/01/21 07:03:07;;;;;;;7.68;5.25;;;2.00;99.90;;;;;;5069172;28;20045;-28
2024/01/21 07:05:33;;;;;;;6.57;5.30;;;2.00;99.90;;;;;;5064713;28;20499;-28
2024/01/21 07:07:59;;;;;;;8.00;5.10;;;2.10;99.90;;;;;;5065832;28;20025;-28
2024/01/21 07:10:24;;;;;;;7.22;4.60;;;2.10;99.90;;;;;;5069273;28;20033;-29
2024/01/21 07:12:51;;;;;;;7.78;4.35;;;2.00;99.90;;;;;;5069676;28;20454;-29
2024/01/21 07:15:17;;;;;;;7.40;5.20;;;2.00;99.90;;;;;;5068241;28;20535;-29
2024/01/21 07:17:43;;;;;;;7.72;5.50;;;2.10;99.90;;;;;;5063284;28;20179;-29
2024/01/21 07:20:12;;;;;;;7.53;5.00;;;2.10;99.90;;;;;;5060152;28;20408;-29
2024/01/21 07:22:38;;;;;;;7.18;4.85;;;2.00;99.90;;;;;;5060491;28;20044;-29
2024/01/21 07:25:04;;;;;;;7.78;5.60;;;2.00;99.90;;;;;;5067991;28;20690;-29
2024/01/21 07:27:30;;;;;;;9.30;5.47;;;2.00;99.90;;;;;;5066985;28;20029;-29
2024/01/21 07:29:57;;;;;;;7.43;5.13;;;2.00;99.90;;;;;;5071915;28;20388;-31
2024/01/21 07:32:23;;;;;;;9.18;5.18;;;1.90;99.90;;;;;;5072217;28;20557;-31
2024/01/21 07:34:49;;;;;;;9.60;5.97;;;2.00;99.90;;;;;;5072112;28;20052;-30
2024/01/21 07:37:14;;;;;;;8.43;5.20;;;1.90;99.90;;;;;;5053833;28;20068;-31
2024/01/21 07:39:40;;;;;;;9.05;5.68;;;1.90;99.90;;;;;;5053623;28;20044;-31
2024/01/21 07:42:06;;;;;;;9.35;6.68;;;1.90;99.90;;;;;;5069701;28;20418;-31
2024/01/21 07:44:32;;;;;;;11.52;6.15;;;1.90;99.90;;;;;;5065381;28;20048;-31
2024/01/21 07:46:57;;;;;;;10.32;5.57;;;1.90;99.90;;;;;;5059974;28;20033;-31
2024/01/21 07:49:23;;;;;;;9.65;5.68;;;1.90;99.90;;;;;;5056197;28;20212;-31
2024/01/21 07:51:49;;;;;;;9.35;6.43;;;1.90;99.90;;;;;;5060892;28;20044;-31
2024/01/21 07:54:14;;;;;;;9.48;6.15;;;1.90;99.90;;;;;;5055750;28;20132;-31
2024/01/21 07:56:40;;;;;;;8.13;4.38;;;1.90;99.90;;;;;;5061897;28;20041;-31
2024/01/21 07:59:06;;;;;;;9.18;5.72;;;1.90;99.90;;;;;;5066116;28;20488;-31
2024/01/21 08:01:31;;;;;;;9.02;5.00;;;1.90;99.90;;;;;;5045461;28;20519;-31
2024/01/21 08:03:57;;;;;;;7.28;5.30;;;1.90;99.90;;;;;;5070463;28;20090;-31
2024/01/21 08:06:23;;;;;;;9.80;8.25;;;1.90;99.90;;;;;;5064213;28;20065;-31
2024/01/21 08:08:49;;;;;;;8.93;6.45;;;1.90;99.90;;;;;;5060387;28;20087;-31
2024/01/21 08:11:16;;;;;;;9.18;6.10;;;1.90;99.90;;;;;;5067144;28;20502;-31
2024/01/21 08:13:42;;;;;;;9.00;6.35;;;2.00;99.90;;;;;;5064385;28;20040;-31
2024/01/21 08:16:07;;;;;;;8.73;6.75;;;2.00;99.90;;;;;;5066179;28;20083;-31
2024/01/21 08:18:34;;;;;;;9.90;6.10;;;2.00;99.90;;;;;;5073133;28;20071;-31
2024/01/21 08:21:00;;;;;;;11.20;6.28;;;2.00;99.90;;;;;;5069126;28;20351;-31
2024/01/21 08:23:26;;;;;;;13.45;8.35;;;2.00;99.90;;;;;;5070136;28;20539;-31
2024/01/21 08:25:51;;;;;;;9.98;6.53;;;2.00;99.90;;;;;;5072762;28;20036;-31
2024/01/21 08:28:17;;;;;;;10.35;6.43;;;2.10;99.90;;;;;;5072556;28;20045;-31
2024/01/21 08:30:43;;;;;;;10.23;6.75;;;2.10;99.90;;;;;;5072868;28;20040;-31
2024/01/21 08:33:09;;;;;;;9.35;6.40;;;2.20;99.90;;;;;;5073015;28;20040;-31
2024/01/21 08:35:36;;;;;;;10.82;7.38;;;2.20;99.90;;;;;;5072176;28;20395;-32
2024/01/21 08:38:02;;;;;;;8.32;5.97;;;2.30;99.90;;;;;;5069498;28;20532;-31
2024/01/21 08:40:28;;;;;;;13.60;7.60;;;2.30;99.90;;;;;;5054739;28;20127;-31
2024/01/21 08:42:53;;;;;;;11.40;6.68;;;2.40;99.90;;;;;;5075098;28;20126;-31
2024/01/21 08:45:19;;;;;;;11.00;7.05;;;2.40;99.90;;;;;;5071240;28;20376;-31
2024/01/21 08:47:45;;;;;;;9.52;6.43;;;2.50;99.90;;;;;;5069478;28;20032;-31
2024/01/21 08:50:11;;;;;;;10.65;6.85;;;2.40;99.90;;;;;;5072594;28;20174;-30
2024/01/21 08:52:37;;;;;;;10.85;6.90;;;2.40;99.90;;;;;;5072212;28;20064;-30
2024/01/21 08:55:04;;;;;;;10.23;6.93;;;2.40;99.90;;;;;;5077677;28;20060;-30
2024/01/21 08:57:30;;;;;;;10.48;6.80;;;2.30;99.90;;;;;;5076115;28;20044;-30
2024/01/21 08:59:56;;;;;;;12.38;7.53;;;2.40;99.90;;;;;;5073894;28;20040;-30
2024/01/21 09:02:21;;;;;;;8.60;6.30;;;2.40;99.90;;;;;;5074453;28;20534;-30
2024/01/21 09:04:47;;;;;;;7.97;5.43;;;2.50;99.90;;;;;;5078695;28;20029;-30
2024/01/21 09:07:13;;;;;;;8.27;5.10;;;2.50;99.90;;;;;;5071929;28;20032;-30
2024/01/21 09:09:39;;;;;;;10.57;6.85;;;2.50;99.90;;;;;;5054581;28;20063;-30
2024/01/21 09:12:07;;;;;;;9.82;6.78;;;2.60;99.90;;;;;;5071521;28;20036;-31
2024/01/21 09:14:34;;;;;;;10.20;6.38;;;2.60;99.90;;;;;;5072065;28;20419;-30
2024/01/21 09:16:59;;;;;;;7.70;5.43;;;2.70;99.90;;;;;;5071946;28;20041;-31
2024/01/21 09:19:25;;;;;;;8.02;6.10;;;2.80;99.90;;;;;;5083318;28;20044;-30
2024/01/21 09:21:51;;;;;;;9.85;6.20;;;2.80;99.90;;;;;;5071497;28;20093;-30
2024/01/21 09:24:17;;;;;;;7.72;5.95;;;2.90;99.90;;;;;;5075789;28;20029;-30
2024/01/21 09:26:43;;;;;;;9.38;6.60;;;2.90;99.90;;;;;;5071753;28;20051;-30
2024/01/21 09:29:09;;;;;;;7.68;5.35;;;2.90;99.90;;;;;;5071778;28;20040;-30
2024/01/21 09:31:35;;;;;;;7.90;5.50;;;2.90;99.90;;;;;;5071752;28;20495;-30
2024/01/21 09:34:01;;;;;;;8.80;6.22;;;2.80;99.90;;;;;;5071728;28;20446;-30
2024/01/21 09:36:27;;;;;;;7.90;5.97;;;2.80;99.90;;;;;;5071882;28;20170;-30
2024/01/21 09:38:53;;;;;;;7.28;5.78;;;2.80;99.90;;;;;;5071510;28;20066;-30
2024/01/21 09:41:55;;;;;;;9.82;6.22;;;2.80;99.90;;;;;;5057329;28;20061;-31
2024/01/21 09:44:26;;;;;;;9.13;6.50;;;2.70;99.90;;;;;;4993524;28;20046;-30
2024/01/21 09:46:56;;;;;;;9.10;6.65;;;2.70;99.90;;;;;;5063062;28;20044;-30
2024/01/21 09:49:23;;;;;;;8.82;6.28;;;2.70;99.90;;;;;;5069686;28;20049;-30
2024/01/21 09:51:50;;;;;;;8.27;5.65;;;2.80;99.90;;;;;;5051141;28;20106;-30
2024/01/21 09:54:16;;;;;;;9.60;6.20;;;2.80;99.90;;;;;;5070889;28;20119;-30
2024/01/21 09:56:43;;;;;;;8.15;6.25;;;2.90;99.90;;;;;;5076960;28;20036;-30
2024/01/21 09:59:10;;;;;;;8.07;6.03;;;2.90;99.90;;;;;;5078423;28;20605;-30
2024/01/21 10:01:40;;;;;;;8.60;6.00;;;2.90;99.90;;;;;;5071000;28;20426;-30
2024/01/21 10:04:07;;;;;;;8.07;6.32;;;3.00;99.90;;;;;;5049576;28;20037;-30
2024/01/21 10:06:34;;;;;;;9.35;6.47;;;3.00;99.90;;;;;;5083210;28;20133;-30
2024/01/21 10:09:22;;;;;;;7.22;5.93;;;3.10;99.90;;;;;;5071748;28;20051;-30
2024/01/21 10:11:55;;;;;;;7.22;5.68;;;3.10;99.90;;;;;;5083304;28;20119;-31
2024/01/21 10:14:20;;;;;;;9.20;6.93;;;3.20;99.90;;;;;;5073290;28;20045;-30
2024/01/21 10:16:47;;;;;;;7.80;6.63;;;3.30;99.90;;;;;;5070352;28;20389;-31
2024/01/21 10:19:33;;;;;;;9.63;6.10;;;3.30;99.90;;;;;;5056397;28;20492;-29
2024/01/21 10:22:10;;;;;;;12.32;10.43;;;3.30;99.90;;;;;;5073927;28;20379;-29
2024/01/21 10:24:40;;;;;;;8.73;6.53;;;3.30;99.90;;;;;;5068470;28;20028;-29
2024/01/21 10:27:07;;;;;;;8.18;6.60;;;3.40;99.90;;;;;;5074723;28;20491;-29
2024/01/21 10:29:34;;;;;;;10.23;6.93;;;3.40;99.90;;;;;;5075385;28;20048;-29
2024/01/21 10:32:00;;;;;;;9.60;6.53;;;3.40;99.90;;;;;;5090106;28;20036;-29
2024/01/21 10:34:27;;;;;;;7.90;5.57;;;3.50;99.90;;;;;;5071190;28;20036;-29
2024/01/21 10:36:54;;;;;;;9.13;6.57;;;3.50;99.90;;;;;;5071255;28;20372;-29
2024/01/21 10:39:22;;;;;;;11.20;8.30;;;3.50;99.90;;;;;;5072744;28;20052;-29
2024/01/21 10:41:48;;;;;;;8.48;5.88;;;3.50;99.90;;;;;;5080381;28;20082;-29
2024/01/21 10:44:15;;;;;;;8.30;6.68;;;3.50;99.90;;;;;;5070369;28;20036;-30
2024/01/21 10:46:42;;;;;;;9.05;6.50;;;3.60;99.90;;;;;;5072817;28;20037;-30
2024/01/21 10:49:10;;;;;;;10.70;6.60;;;3.50;99.90;;;;;;5075509;28;20530;-30
2024/01/21 10:51:38;;;;;;;10.30;7.38;;;3.60;99.90;;;;;;5073791;28;20036;-31
2024/01/21 10:54:06;;;;;;;9.35;6.88;;;3.60;99.90;;;;;;5072836;28;20044;-30
2024/01/21 10:56:34;;;;;;;8.13;5.57;;;3.60;99.90;;;;;;5073350;28;20040;-30
2024/01/21 10:59:00;;;;;;;7.60;5.95;;;3.60;99.90;;;;;;5069866;28;20083;-30
2024/01/21 11:01:26;;;;;;;9.57;5.95;;;3.70;99.90;;;;;;5072689;28;20028;-31
2024/01/21 11:04:10;;;;;;;8.98;6.75;;;3.70;99.90;;;;;;5074477;28;20495;-30
2024/01/21 11:06:35;;;;;;;8.77;6.32;;;3.70;99.90;;;;;;5054475;28;20094;-30
2024/01/21 11:09:05;;;;;;;7.68;6.22;;;3.70;99.90;;;;;;5077109;28;20048;-30
2024/01/21 11:11:30;;;;;;;10.98;6.97;;;3.60;99.90;;;;;;5068305;28;20051;-30
2024/01/21 11:13:56;;;;;;;8.60;6.43;;;3.60;99.90;;;;;;5068584;28;20040;-30
2024/01/21 11:16:28;;;;;;;10.00;7.18;;;3.60;99.90;;;;;;5064029;28;20040;-30
2024/01/21 11:18:57;;;;;;;9.57;6.90;;;3.70;99.90;;;;;;5071363;28;20048;-30
2024/01/21 11:21:28;;;;;;;9.70;7.30;;;3.70;99.90;;;;;;5075144;28;20060;-30
2024/01/21 11:24:03;;;;;;;11.40;8.25;;;3.70;99.90;;;;;;5074195;28;20098;-30
2024/01/21 11:26:35;;;;;;;8.82;7.32;;;3.60;99.90;;;;;;5074101;28;20036;-30
2024/01/21 11:29:02;;;;;;;9.50;6.50;;;3.60;99.90;;;;;;5073939;28;20445;-30
2024/01/21 11:31:32;;;;;;;10.52;6.95;;;3.60;99.90;;;;;;5074083;28;20040;-30
2024/01/21 11:34:17;;;;;;;9.18;6.63;;;3.60;99.90;;;;;;5085242;28;20044;-30
2024/01/21 11:36:46;;;;;;;11.25;6.68;;;3.60;99.90;;;;;;5081846;28;20048;-30
2024/01/21 11:39:11;;;;;;;11.82;7.68;;;3.50;99.90;;;;;;5073673;28;20082;-30
2024/01/21 11:41:41;;;;;;;10.00;6.93;;;3.50;99.90;;;;;;5073651;28;20044;-31
2024/01/21 11:44:21;;;;;;;9.45;6.47;;;3.50;99.90;;;;;;5072726;28;20399;-30
2024/01/21 11:46:47;;;;;;;9.90;7.03;;;3.50;99.90;;;;;;5072966;28;20075;-30
2024/01/21 11:49:13;;;;;;;9.30;6.82;;;3.50;99.90;;;;;;5081031;28;20076;-29
2024/01/21 11:51:39;;;;;;;10.00;7.00;;;3.50;99.90;;;;;;5072357;28;20115;-31
2024/01/21 11:54:06;;;;;;;8.93;6.88;;;3.50;99.90;;;;;;5073578;28;20040;-31
2024/01/21 11:56:34;;;;;;;10.02;7.25;;;3.50;99.90;;;;;;5070000;28;20090;-31
2024/01/21 11:59:00;;;;;;;10.73;7.20;;;3.50;99.90;;;;;;5067309;28;20051;-31
2024/01/21 12:01:30;;;;;;;10.18;7.10;;;3.50;99.90;;;;;;5071446;28;20029;-32
2024/01/21 12:03:56;;;;;;;9.68;7.15;;;3.40;99.90;;;;;;5079824;28;20032;-31
2024/01/21 12:06:23;;;;;;;8.65;7.00;;;3.50;99.90;;;;;;5069064;28;20123;-31
2024/01/21 12:08:49;;;;;;;9.80;6.95;;;3.50;99.90;;;;;;5067831;28;20044;-31
2024/01/21 12:11:18;;;;;;;13.88;9.00;;;3.50;99.90;;;;;;5070936;28;20040;-31
2024/01/21 12:13:44;;;;;;;8.25;6.57;;;3.60;99.90;;;;;;5071915;28;20098;-30
2024/01/21 12:16:12;;;;;;;8.88;6.70;;;3.60;99.90;;;;;;5075577;28;20477;-29
2024/01/21 12:18:40;;;;;;;10.35;7.15;;;3.60;99.90;;;;;;5066067;28;20043;-29
2024/01/21 12:21:06;;;;;;;9.05;7.10;;;3.70;99.90;;;;;;5063793;28;20067;-30
2024/01/21 12:23:32;;;;;;;10.57;6.93;;;3.70;99.90;;;;;;5064861;28;20040;-29
2024/01/21 12:25:59;;;;;;;10.13;7.68;;;3.80;99.90;;;;;;5066403;28;20052;-29
2024/01/21 12:28:24;;;;;;;12.02;8.00;;;3.80;99.90;;;;;;5052622;28;20511;-29
2024/01/21 12:30:50;;;;;;;8.95;7.72;;;3.80;99.90;;;;;;5067346;28;20051;-29
2024/01/21 12:33:16;;;;;;;10.13;7.93;;;3.90;99.90;;;;;;5070127;28;20064;-29
2024/01/21 12:35:44;;;;;;;9.55;7.50;;;3.90;99.90;;;;;;5071912;28;20048;-29
2024/01/21 12:38:10;;;;;;;11.10;7.38;;;3.90;99.90;;;;;;5070739;28;20040;-29
2024/01/21 12:40:36;;;;;;;9.52;7.32;;;3.90;99.90;;;;;;5078247;28;20052;-29
2024/01/21 12:43:01;;;;;;;11.00;7.13;;;3.90;99.90;;;;;;5071379;28;20048;-29
2024/01/21 12:45:27;;;;;;;10.05;7.53;;;3.90;99.90;;;;;;5078136;28;20060;-29
2024/01/21 12:47:53;;;;;;;12.88;7.90;;;3.90;99.90;;;;;;5070500;28;20052;-29
2024/01/21 12:50:19;;;;;;;10.90;6.65;;;3.90;99.90;;;;;;5070547;28;20039;-29
2024/01/21 12:52:45;;;;;;;9.32;6.80;;;3.90;99.90;;;;;;5072451;28;20043;-33